sensor_id;sensor_type;location;lat;lon;timestamp;temperature;humidity
17831;DHT22;9040;51.332;12.406;2022-07-05T00:01:27;22.70;86.10
17831;DHT22;9040;51.332;12.406;2022-07-05T00:03:55;22.70;86.60
17831;DHT22;9040;51.332;12.406;2022-07-05T00:06:22;22.70;87.60
17831;DHT22;9040;51.332;12.406;2022-07-05T00:08:48;22.70;88.00
17831;DHT22;9040;51.332;12.406;2022-07-05T00:11:15;22.70;88.30
17831;DHT22;9040;51.332;12.406;2022-07-05T00:13:42;22.60;88.70
17831;DHT22;9040;51.332;12.406;2022-07-05T00:16:09;22.60;88.60
17831;DHT22;9040;51.332;12.406;2022-07-05T00:18:36;22.60;90.30
17831;DHT22;9040;51.332;12.406;2022-07-05T00:21:04;22.50;90.20
17831;DHT22;9040;51.332;12.406;2022-07-05T00:23:31;22.50;90.40
17831;DHT22;9040;51.332;12.406;2022-07-05T00:25:58;22.50;91.50
17831;DHT22;9040;51.332;12.406;2022-07-05T00:28:25;22.50;91.50
17831;DHT22;9040;51.332;12.406;2022-07-05T00:30:52;22.40;91.60
17831;DHT22;9040;51.332;12.406;2022-07-05T00:33:18;22.40;91.90
17831;DHT22;9040;51.332;12.406;2022-07-05T00:35:45;22.30;92.20
17831;DHT22;9040;51.332;12.406;2022-07-05T00:38:14;22.30;92.50
17831;DHT22;9040;51.332;12.406;2022-07-05T00:40:42;22.30;93.00
17831;DHT22;9040;51.332;12.406;2022-07-05T00:43:09;22.20;92.80
17831;DHT22;9040;51.332;12.406;2022-07-05T00:45:35;22.20;93.20
17831;DHT22;9040;51.332;12.406;2022-07-05T00:48:03;22.20;93.70
17831;DHT22;9040;51.332;12.406;2022-07-05T00:50:29;22.10;93.70
17831;DHT22;9040;51.332;12.406;2022-07-05T00:52:57;22.10;93.70
17831;DHT22;9040;51.332;12.406;2022-07-05T00:55:25;22.00;94.20
17831;DHT22;9040;51.332;12.406;2022-07-05T00:57:52;22.00;94.80
17831;DHT22;9040;51.332;12.406;2022-07-05T01:00:20;22.00;94.60
17831;DHT22;9040;51.332;12.406;2022-07-05T01:02:47;21.90;93.20
17831;DHT22;9040;51.332;12.406;2022-07-05T01:05:14;21.80;92.70
17831;DHT22;9040;51.332;12.406;2022-07-05T01:07:41;21.70;93.10
17831;DHT22;9040;51.332;12.406;2022-07-05T01:10:09;21.60;93.10
17831;DHT22;9040;51.332;12.406;2022-07-05T01:12:39;21.60;93.50
17831;DHT22;9040;51.332;12.406;2022-07-05T01:15:07;21.60;94.50
17831;DHT22;9040;51.332;12.406;2022-07-05T01:17:34;21.70;95.00
17831;DHT22;9040;51.332;12.406;2022-07-05T01:20:03;21.70;94.90
17831;DHT22;9040;51.332;12.406;2022-07-05T01:22:49;21.70;95.30
17831;DHT22;9040;51.332;12.406;2022-07-05T01:25:18;21.70;95.00
17831;DHT22;9040;51.332;12.406;2022-07-05T01:27:45;21.70;94.70
17831;DHT22;9040;51.332;12.406;2022-07-05T01:30:13;21.70;95.40
17831;DHT22;9040;51.332;12.406;2022-07-05T01:32:40;21.70;95.10
17831;DHT22;9040;51.332;12.406;2022-07-05T01:35:08;21.70;94.90
17831;DHT22;9040;51.332;12.406;2022-07-05T01:37:37;21.70;95.80
17831;DHT22;9040;51.332;12.406;2022-07-05T01:40:05;21.70;95.90
17831;DHT22;9040;51.332;12.406;2022-07-05T01:42:32;21.70;95.10
17831;DHT22;9040;51.332;12.406;2022-07-05T01:44:59;21.70;94.50
17831;DHT22;9040;51.332;12.406;2022-07-05T01:47:26;21.60;93.90
17831;DHT22;9040;51.332;12.406;2022-07-05T01:49:55;21.60;94.40
17831;DHT22;9040;51.332;12.406;2022-07-05T01:52:25;21.60;94.50
17831;DHT22;9040;51.332;12.406;2022-07-05T01:54:55;21.50;94.10
17831;DHT22;9040;51.332;12.406;2022-07-05T01:57:22;21.40;94.40
17831;DHT22;9040;51.332;12.406;2022-07-05T01:59:49;21.50;95.10
17831;DHT22;9040;51.332;12.406;2022-07-05T02:02:16;21.50;95.20
17831;DHT22;9040;51.332;12.406;2022-07-05T02:04:43;21.40;94.90
17831;DHT22;9040;51.332;12.406;2022-07-05T02:07:10;21.40;95.30
17831;DHT22;9040;51.332;12.406;2022-07-05T02:09:37;21.40;95.50
17831;DHT22;9040;51.332;12.406;2022-07-05T02:12:06;21.30;96.00
17831;DHT22;9040;51.332;12.406;2022-07-05T02:14:33;21.30;96.40
17831;DHT22;9040;51.332;12.406;2022-07-05T02:17:00;21.30;96.50
17831;DHT22;9040;51.332;12.406;2022-07-05T02:19:27;21.30;97.10
17831;DHT22;9040;51.332;12.406;2022-07-05T02:21:54;21.20;97.60
17831;DHT22;9040;51.332;12.406;2022-07-05T02:24:21;21.10;97.60
17831;DHT22;9040;51.332;12.406;2022-07-05T02:26:48;21.00;97.90
17831;DHT22;9040;51.332;12.406;2022-07-05T02:29:16;21.00;98.00
17831;DHT22;9040;51.332;12.406;2022-07-05T02:31:43;20.80;98.50
17831;DHT22;9040;51.332;12.406;2022-07-05T02:34:10;20.80;98.60
17831;DHT22;9040;51.332;12.406;2022-07-05T02:36:37;20.80;99.70
17831;DHT22;9040;51.332;12.406;2022-07-05T02:39:04;20.70;99.40
17831;DHT22;9040;51.332;12.406;2022-07-05T02:41:30;20.70;99.90
17831;DHT22;9040;51.332;12.406;2022-07-05T02:43:57;20.60;99.90
17831;DHT22;9040;51.332;12.406;2022-07-05T02:46:26;20.40;99.90
17831;DHT22;9040;51.332;12.406;2022-07-05T02:48:52;20.30;99.90
17831;DHT22;9040;51.332;12.406;2022-07-05T02:51:19;20.30;99.90
17831;DHT22;9040;51.332;12.406;2022-07-05T02:53:46;20.30;99.90
17831;DHT22;9040;51.332;12.406;2022-07-05T02:56:13;20.40;99.90
17831;DHT22;9040;51.332;12.406;2022-07-05T02:58:40;20.50;99.90
17831;DHT22;9040;51.332;12.406;2022-07-05T03:01:07;20.40;99.90
17831;DHT22;9040;51.332;12.406;2022-07-05T03:03:35;20.50;99.90
17831;DHT22;9040;51.332;12.406;2022-07-05T03:06:02;20.40;99.90
17831;DHT22;9040;51.332;12.406;2022-07-05T03:08:28;20.30;99.90
17831;DHT22;9040;51.332;12.406;2022-07-05T03:10:55;20.20;99.90
17831;DHT22;9040;51.332;12.406;2022-07-05T03:13:22;20.20;99.90
17831;DHT22;9040;51.332;12.406;2022-07-05T03:15:49;20.20;99.90
17831;DHT22;9040;51.332;12.406;2022-07-05T03:18:16;20.20;99.90
17831;DHT22;9040;51.332;12.406;2022-07-05T03:20:44;20.10;99.90
17831;DHT22;9040;51.332;12.406;2022-07-05T03:23:11;20.10;99.90
17831;DHT22;9040;51.332;12.406;2022-07-05T03:25:38;20.20;99.90
17831;DHT22;9040;51.332;12.406;2022-07-05T03:28:04;20.10;99.90
17831;DHT22;9040;51.332;12.406;2022-07-05T03:30:31;20.10;99.90
17831;DHT22;9040;51.332;12.406;2022-07-05T03:32:58;20.10;99.90
17831;DHT22;9040;51.332;12.406;2022-07-05T03:35:26;20.00;99.90
17831;DHT22;9040;51.332;12.406;2022-07-05T03:37:54;19.90;99.90
17831;DHT22;9040;51.332;12.406;2022-07-05T03:40:21;19.80;99.90
17831;DHT22;9040;51.332;12.406;2022-07-05T03:42:49;19.80;99.90
17831;DHT22;9040;51.332;12.406;2022-07-05T03:45:15;19.70;99.90
17831;DHT22;9040;51.332;12.406;2022-07-05T03:47:42;19.50;99.90
17831;DHT22;9040;51.332;12.406;2022-07-05T03:50:09;19.50;99.90
17831;DHT22;9040;51.332;12.406;2022-07-05T03:52:36;19.50;99.90
17831;DHT22;9040;51.332;12.406;2022-07-05T03:55:05;19.40;99.90
17831;DHT22;9040;51.332;12.406;2022-07-05T03:57:32;19.30;99.90
17831;DHT22;9040;51.332;12.406;2022-07-05T03:59:59;19.30;99.90
17831;DHT22;9040;51.332;12.406;2022-07-05T04:02:26;19.20;99.90
17831;DHT22;9040;51.332;12.406;2022-07-05T04:04:52;19.00;99.90
17831;DHT22;9040;51.332;12.406;2022-07-05T04:07:19;19.00;99.90
17831;DHT22;9040;51.332;12.406;2022-07-05T04:09:46;19.00;99.90
17831;DHT22;9040;51.332;12.406;2022-07-05T04:12:14;19.00;99.90
17831;DHT22;9040;51.332;12.406;2022-07-05T04:14:41;19.00;99.90
17831;DHT22;9040;51.332;12.406;2022-07-05T04:17:08;19.10;99.90
17831;DHT22;9040;51.332;12.406;2022-07-05T04:19:35;19.10;99.90
17831;DHT22;9040;51.332;12.406;2022-07-05T04:22:02;19.10;99.90
17831;DHT22;9040;51.332;12.406;2022-07-05T04:24:29;19.10;99.90
17831;DHT22;9040;51.332;12.406;2022-07-05T04:26:56;18.90;99.90
17831;DHT22;9040;51.332;12.406;2022-07-05T04:29:24;18.90;99.90
17831;DHT22;9040;51.332;12.406;2022-07-05T04:31:51;19.00;99.90
17831;DHT22;9040;51.332;12.406;2022-07-05T04:34:18;19.10;99.90
17831;DHT22;9040;51.332;12.406;2022-07-05T04:36:44;19.20;99.90
17831;DHT22;9040;51.332;12.406;2022-07-05T04:39:11;19.10;99.90
17831;DHT22;9040;51.332;12.406;2022-07-05T04:41:38;19.00;99.90
17831;DHT22;9040;51.332;12.406;2022-07-05T04:44:05;18.90;99.90
17831;DHT22;9040;51.332;12.406;2022-07-05T04:46:33;18.80;99.90
17831;DHT22;9040;51.332;12.406;2022-07-05T04:49:01;18.90;99.90
17831;DHT22;9040;51.332;12.406;2022-07-05T04:51:28;18.90;99.90
17831;DHT22;9040;51.332;12.406;2022-07-05T04:53:55;19.00;99.90
17831;DHT22;9040;51.332;12.406;2022-07-05T04:56:22;19.00;99.90
17831;DHT22;9040;51.332;12.406;2022-07-05T04:58:49;19.00;99.90
17831;DHT22;9040;51.332;12.406;2022-07-05T05:01:16;19.00;99.90
17831;DHT22;9040;51.332;12.406;2022-07-05T05:03:44;19.00;99.90
17831;DHT22;9040;51.332;12.406;2022-07-05T05:06:11;19.00;99.90
17831;DHT22;9040;51.332;12.406;2022-07-05T05:08:39;19.00;99.90
17831;DHT22;9040;51.332;12.406;2022-07-05T05:11:07;18.90;99.90
17831;DHT22;9040;51.332;12.406;2022-07-05T05:13:34;18.90;99.90
17831;DHT22;9040;51.332;12.406;2022-07-05T05:16:01;18.90;99.90
17831;DHT22;9040;51.332;12.406;2022-07-05T05:18:28;18.90;99.90
17831;DHT22;9040;51.332;12.406;2022-07-05T05:20:56;18.80;99.90
17831;DHT22;9040;51.332;12.406;2022-07-05T05:23:23;18.80;99.90
17831;DHT22;9040;51.332;12.406;2022-07-05T05:25:50;18.80;99.90
17831;DHT22;9040;51.332;12.406;2022-07-05T05:28:17;19.00;99.90
17831;DHT22;9040;51.332;12.406;2022-07-05T05:30:44;19.00;99.90
17831;DHT22;9040;51.332;12.406;2022-07-05T05:33:11;19.10;99.90
17831;DHT22;9040;51.332;12.406;2022-07-05T05:35:38;19.00;99.90
17831;DHT22;9040;51.332;12.406;2022-07-05T05:38:07;19.00;99.90
17831;DHT22;9040;51.332;12.406;2022-07-05T05:40:34;18.90;99.90
17831;DHT22;9040;51.332;12.406;2022-07-05T05:43:03;18.90;99.90
17831;DHT22;9040;51.332;12.406;2022-07-05T05:45:30;19.00;99.90
17831;DHT22;9040;51.332;12.406;2022-07-05T05:47:58;19.10;99.90
17831;DHT22;9040;51.332;12.406;2022-07-05T05:50:28;19.10;99.90
17831;DHT22;9040;51.332;12.406;2022-07-05T05:52:55;19.10;99.90
17831;DHT22;9040;51.332;12.406;2022-07-05T05:55:24;19.00;99.90
17831;DHT22;9040;51.332;12.406;2022-07-05T05:57:52;18.90;99.90
17831;DHT22;9040;51.332;12.406;2022-07-05T06:00:20;18.90;99.90
17831;DHT22;9040;51.332;12.406;2022-07-05T06:02:49;18.80;99.90
17831;DHT22;9040;51.332;12.406;2022-07-05T06:05:16;18.90;99.90
17831;DHT22;9040;51.332;12.406;2022-07-05T06:07:45;19.00;99.90
17831;DHT22;9040;51.332;12.406;2022-07-05T06:10:15;19.20;99.90
17831;DHT22;9040;51.332;12.406;2022-07-05T06:12:43;19.30;99.90
17831;DHT22;9040;51.332;12.406;2022-07-05T06:15:10;19.40;99.90
17831;DHT22;9040;51.332;12.406;2022-07-05T06:17:38;19.50;99.90
17831;DHT22;9040;51.332;12.406;2022-07-05T06:20:07;19.60;99.90
17831;DHT22;9040;51.332;12.406;2022-07-05T06:22:34;19.70;99.90
17831;DHT22;9040;51.332;12.406;2022-07-05T06:25:01;19.90;99.90
17831;DHT22;9040;51.332;12.406;2022-07-05T06:27:28;20.00;99.90
17831;DHT22;9040;51.332;12.406;2022-07-05T06:29:57;20.10;99.90
17831;DHT22;9040;51.332;12.406;2022-07-05T06:32:24;20.20;99.90
17831;DHT22;9040;51.332;12.406;2022-07-05T06:34:51;20.20;99.90
17831;DHT22;9040;51.332;12.406;2022-07-05T06:37:18;20.20;99.90
17831;DHT22;9040;51.332;12.406;2022-07-05T06:39:45;20.30;99.90
17831;DHT22;9040;51.332;12.406;2022-07-05T06:42:11;20.40;99.90
17831;DHT22;9040;51.332;12.406;2022-07-05T06:44:38;20.50;99.90
17831;DHT22;9040;51.332;12.406;2022-07-05T06:47:06;20.50;99.90
17831;DHT22;9040;51.332;12.406;2022-07-05T06:49:33;20.40;99.90
17831;DHT22;9040;51.332;12.406;2022-07-05T06:52:00;20.50;99.90
17831;DHT22;9040;51.332;12.406;2022-07-05T06:54:27;20.50;99.90
17831;DHT22;9040;51.332;12.406;2022-07-05T06:56:54;20.50;99.90
17831;DHT22;9040;51.332;12.406;2022-07-05T06:59:21;20.60;99.90
17831;DHT22;9040;51.332;12.406;2022-07-05T07:01:48;20.50;99.90
17831;DHT22;9040;51.332;12.406;2022-07-05T07:04:16;20.50;99.90
17831;DHT22;9040;51.332;12.406;2022-07-05T07:06:43;20.60;99.90
17831;DHT22;9040;51.332;12.406;2022-07-05T07:09:10;20.60;99.90
17831;DHT22;9040;51.332;12.406;2022-07-05T07:11:47;20.50;99.90
17831;DHT22;9040;51.332;12.406;2022-07-05T07:14:15;20.50;99.90
17831;DHT22;9040;51.332;12.406;2022-07-05T07:16:43;20.50;99.90
17831;DHT22;9040;51.332;12.406;2022-07-05T07:19:10;20.60;99.90
17831;DHT22;9040;51.332;12.406;2022-07-05T07:21:39;20.70;99.90
17831;DHT22;9040;51.332;12.406;2022-07-05T07:24:07;20.80;99.90
17831;DHT22;9040;51.332;12.406;2022-07-05T07:27:02;20.90;99.90
17831;DHT22;9040;51.332;12.406;2022-07-05T07:29:44;20.90;99.90
17831;DHT22;9040;51.332;12.406;2022-07-05T07:35:32;21.00;99.90
17831;DHT22;9040;51.332;12.406;2022-07-05T07:41:23;21.00;99.90
17831;DHT22;9040;51.332;12.406;2022-07-05T07:43:50;20.90;99.90
17831;DHT22;9040;51.332;12.406;2022-07-05T07:46:17;20.90;99.90
17831;DHT22;9040;51.332;12.406;2022-07-05T07:48:44;20.90;99.90
17831;DHT22;9040;51.332;12.406;2022-07-05T07:51:10;20.90;99.90
17831;DHT22;9040;51.332;12.406;2022-07-05T07:53:37;20.90;99.90
17831;DHT22;9040;51.332;12.406;2022-07-05T07:56:04;20.90;99.90
17831;DHT22;9040;51.332;12.406;2022-07-05T07:58:33;20.90;99.90
17831;DHT22;9040;51.332;12.406;2022-07-05T08:00:59;21.10;99.90
17831;DHT22;9040;51.332;12.406;2022-07-05T08:03:26;21.20;99.90
17831;DHT22;9040;51.332;12.406;2022-07-05T08:05:53;21.30;99.90
17831;DHT22;9040;51.332;12.406;2022-07-05T08:08:20;21.40;99.90
17831;DHT22;9040;51.332;12.406;2022-07-05T08:10:47;21.50;99.90
17831;DHT22;9040;51.332;12.406;2022-07-05T08:13:14;21.40;99.90
17831;DHT22;9040;51.332;12.406;2022-07-05T08:15:42;21.40;99.90
17831;DHT22;9040;51.332;12.406;2022-07-05T08:18:09;21.50;99.90
17831;DHT22;9040;51.332;12.406;2022-07-05T08:20:53;21.60;99.90
17831;DHT22;9040;51.332;12.406;2022-07-05T08:23:48;21.60;99.90
17831;DHT22;9040;51.332;12.406;2022-07-05T08:26:15;21.60;99.90
17831;DHT22;9040;51.332;12.406;2022-07-05T08:28:42;21.70;99.90
17831;DHT22;9040;51.332;12.406;2022-07-05T08:31:11;21.70;99.90
17831;DHT22;9040;51.332;12.406;2022-07-05T08:33:38;21.70;99.90
17831;DHT22;9040;51.332;12.406;2022-07-05T08:36:05;21.70;99.90
17831;DHT22;9040;51.332;12.406;2022-07-05T08:38:33;21.80;99.90
17831;DHT22;9040;51.332;12.406;2022-07-05T08:41:00;21.90;99.90
17831;DHT22;9040;51.332;12.406;2022-07-05T08:43:28;21.90;99.90
17831;DHT22;9040;51.332;12.406;2022-07-05T08:45:57;21.90;99.90
17831;DHT22;9040;51.332;12.406;2022-07-05T08:48:26;22.00;99.90
17831;DHT22;9040;51.332;12.406;2022-07-05T08:50:54;22.10;99.90
17831;DHT22;9040;51.332;12.406;2022-07-05T08:53:22;22.10;99.90
17831;DHT22;9040;51.332;12.406;2022-07-05T08:55:50;22.20;99.90
17831;DHT22;9040;51.332;12.406;2022-07-05T08:58:17;22.20;99.90
17831;DHT22;9040;51.332;12.406;2022-07-05T09:00:44;22.20;99.90
17831;DHT22;9040;51.332;12.406;2022-07-05T09:03:11;22.30;99.90
17831;DHT22;9040;51.332;12.406;2022-07-05T09:05:42;22.30;99.90
17831;DHT22;9040;51.332;12.406;2022-07-05T09:08:13;22.40;99.90
17831;DHT22;9040;51.332;12.406;2022-07-05T09:10:42;22.30;99.90
17831;DHT22;9040;51.332;12.406;2022-07-05T09:13:09;22.20;99.90
17831;DHT22;9040;51.332;12.406;2022-07-05T09:15:38;22.30;99.90
17831;DHT22;9040;51.332;12.406;2022-07-05T09:18:05;22.30;99.90
17831;DHT22;9040;51.332;12.406;2022-07-05T09:20:32;22.50;99.90
17831;DHT22;9040;51.332;12.406;2022-07-05T09:23:01;22.60;99.90
17831;DHT22;9040;51.332;12.406;2022-07-05T09:25:29;22.70;99.90
17831;DHT22;9040;51.332;12.406;2022-07-05T09:27:58;22.80;99.90
17831;DHT22;9040;51.332;12.406;2022-07-05T09:30:31;22.90;99.90
17831;DHT22;9040;51.332;12.406;2022-07-05T09:33:06;23.00;99.90
17831;DHT22;9040;51.332;12.406;2022-07-05T09:35:35;23.20;99.90
17831;DHT22;9040;51.332;12.406;2022-07-05T09:38:04;23.40;99.90
17831;DHT22;9040;51.332;12.406;2022-07-05T09:40:32;23.50;99.90
17831;DHT22;9040;51.332;12.406;2022-07-05T09:43:13;23.60;99.90
17831;DHT22;9040;51.332;12.406;2022-07-05T09:45:40;23.50;99.90
17831;DHT22;9040;51.332;12.406;2022-07-05T09:48:07;23.60;99.90
17831;DHT22;9040;51.332;12.406;2022-07-05T09:50:35;23.60;99.90
17831;DHT22;9040;51.332;12.406;2022-07-05T09:53:03;23.50;99.90
17831;DHT22;9040;51.332;12.406;2022-07-05T09:55:31;23.40;99.90
17831;DHT22;9040;51.332;12.406;2022-07-05T09:57:58;23.40;99.90
17831;DHT22;9040;51.332;12.406;2022-07-05T10:00:25;23.40;99.90
17831;DHT22;9040;51.332;12.406;2022-07-05T10:02:56;23.40;99.90
17831;DHT22;9040;51.332;12.406;2022-07-05T10:05:28;23.60;99.90
17831;DHT22;9040;51.332;12.406;2022-07-05T10:07:56;23.60;99.90
17831;DHT22;9040;51.332;12.406;2022-07-05T10:10:26;23.70;99.90
17831;DHT22;9040;51.332;12.406;2022-07-05T10:12:54;23.70;99.90
17831;DHT22;9040;51.332;12.406;2022-07-05T10:15:24;23.60;99.90
17831;DHT22;9040;51.332;12.406;2022-07-05T10:17:53;23.60;99.90
17831;DHT22;9040;51.332;12.406;2022-07-05T10:20:25;23.60;99.90
17831;DHT22;9040;51.332;12.406;2022-07-05T10:22:55;23.50;99.90
17831;DHT22;9040;51.332;12.406;2022-07-05T10:25:25;23.50;99.90
17831;DHT22;9040;51.332;12.406;2022-07-05T10:27:53;23.60;99.90
17831;DHT22;9040;51.332;12.406;2022-07-05T10:30:22;23.60;99.90
17831;DHT22;9040;51.332;12.406;2022-07-05T10:32:49;23.70;99.90
17831;DHT22;9040;51.332;12.406;2022-07-05T10:35:17;23.90;99.90
17831;DHT22;9040;51.332;12.406;2022-07-05T10:37:45;24.00;99.90
17831;DHT22;9040;51.332;12.406;2022-07-05T10:40:12;24.20;99.90
17831;DHT22;9040;51.332;12.406;2022-07-05T10:42:45;24.30;99.90
17831;DHT22;9040;51.332;12.406;2022-07-05T10:45:26;24.40;99.90
17831;DHT22;9040;51.332;12.406;2022-07-05T10:48:12;24.30;99.90
17831;DHT22;9040;51.332;12.406;2022-07-05T10:50:43;24.30;99.90
17831;DHT22;9040;51.332;12.406;2022-07-05T10:53:10;24.10;99.90
17831;DHT22;9040;51.332;12.406;2022-07-05T10:55:47;24.00;99.90
17831;DHT22;9040;51.332;12.406;2022-07-05T10:58:24;24.10;99.90
17831;DHT22;9040;51.332;12.406;2022-07-05T11:06:49;24.30;99.60
17831;DHT22;9040;51.332;12.406;2022-07-05T11:09:20;24.40;99.90
17831;DHT22;9040;51.332;12.406;2022-07-05T11:12:15;24.50;99.90
17831;DHT22;9040;51.332;12.406;2022-07-05T11:14:47;24.50;98.90
17831;DHT22;9040;51.332;12.406;2022-07-05T11:17:23;24.50;97.40
17831;DHT22;9040;51.332;12.406;2022-07-05T13:58:32;34.80;56.10
17831;DHT22;9040;51.332;12.406;2022-07-05T14:38:02;28.10;68.10
17831;DHT22;9040;51.332;12.406;2022-07-05T14:40:29;28.10;69.10
17831;DHT22;9040;51.332;12.406;2022-07-05T14:42:57;28.10;70.00
17831;DHT22;9040;51.332;12.406;2022-07-05T14:45:26;28.40;70.40
17831;DHT22;9040;51.332;12.406;2022-07-05T14:47:53;28.50;69.40
17831;DHT22;9040;51.332;12.406;2022-07-05T14:50:21;28.30;69.90
17831;DHT22;9040;51.332;12.406;2022-07-05T14:52:48;28.10;69.60
17831;DHT22;9040;51.332;12.406;2022-07-05T14:55:17;27.90;69.80
17831;DHT22;9040;51.332;12.406;2022-07-05T14:57:44;27.70;70.50
17831;DHT22;9040;51.332;12.406;2022-07-05T15:00:13;27.70;72.00
17831;DHT22;9040;51.332;12.406;2022-07-05T15:02:41;27.90;72.20
17831;DHT22;9040;51.332;12.406;2022-07-05T15:05:08;27.90;71.30
17831;DHT22;9040;51.332;12.406;2022-07-05T15:07:35;28.00;71.00
17831;DHT22;9040;51.332;12.406;2022-07-05T15:10:03;27.90;71.40
17831;DHT22;9040;51.332;12.406;2022-07-05T15:12:31;27.80;72.00
17831;DHT22;9040;51.332;12.406;2022-07-05T15:14:58;27.70;72.00
17831;DHT22;9040;51.332;12.406;2022-07-05T15:17:25;27.70;72.50
17831;DHT22;9040;51.332;12.406;2022-07-05T15:19:52;28.10;71.90
17831;DHT22;9040;51.332;12.406;2022-07-05T15:22:19;28.20;71.80
17831;DHT22;9040;51.332;12.406;2022-07-05T15:24:46;28.70;72.60
17831;DHT22;9040;51.332;12.406;2022-07-05T15:27:15;29.60;71.90
17831;DHT22;9040;51.332;12.406;2022-07-05T15:29:44;30.20;69.90
17831;DHT22;9040;51.332;12.406;2022-07-05T15:32:10;30.40;68.50
17831;DHT22;9040;51.332;12.406;2022-07-05T15:34:37;30.30;68.50
17831;DHT22;9040;51.332;12.406;2022-07-05T15:37:04;29.90;68.50
17831;DHT22;9040;51.332;12.406;2022-07-05T15:39:31;29.40;69.40
17831;DHT22;9040;51.332;12.406;2022-07-05T15:41:59;29.30;69.90
17831;DHT22;9040;51.332;12.406;2022-07-05T15:44:27;29.60;69.50
17831;DHT22;9040;51.332;12.406;2022-07-05T15:46:55;29.90;69.70
17831;DHT22;9040;51.332;12.406;2022-07-05T15:49:30;30.40;68.80
17831;DHT22;9040;51.332;12.406;2022-07-05T15:51:58;30.80;67.70
17831;DHT22;9040;51.332;12.406;2022-07-05T15:54:26;31.10;67.00
17831;DHT22;9040;51.332;12.406;2022-07-05T15:56:52;31.60;68.50
17831;DHT22;9040;51.332;12.406;2022-07-05T15:59:20;31.90;64.60
17831;DHT22;9040;51.332;12.406;2022-07-05T16:01:47;31.40;64.80
17831;DHT22;9040;51.332;12.406;2022-07-05T16:04:15;31.60;66.90
17831;DHT22;9040;51.332;12.406;2022-07-05T16:06:42;31.10;65.90
17831;DHT22;9040;51.332;12.406;2022-07-05T16:09:10;30.20;67.20
17831;DHT22;9040;51.332;12.406;2022-07-05T16:11:37;29.50;68.60
17831;DHT22;9040;51.332;12.406;2022-07-05T16:14:03;29.00;69.60
17831;DHT22;9040;51.332;12.406;2022-07-05T16:16:30;28.50;70.70
17831;DHT22;9040;51.332;12.406;2022-07-05T16:18:57;28.50;71.70
17831;DHT22;9040;51.332;12.406;2022-07-05T16:21:26;29.00;71.80
17831;DHT22;9040;51.332;12.406;2022-07-05T16:23:53;29.80;71.00
17831;DHT22;9040;51.332;12.406;2022-07-05T16:26:21;30.30;69.80
17831;DHT22;9040;51.332;12.406;2022-07-05T16:28:48;30.60;68.40
17831;DHT22;9040;51.332;12.406;2022-07-05T16:31:16;30.50;68.90
17831;DHT22;9040;51.332;12.406;2022-07-05T16:33:44;30.40;68.00
17831;DHT22;9040;51.332;12.406;2022-07-05T16:36:13;30.60;69.00
17831;DHT22;9040;51.332;12.406;2022-07-05T16:38:42;30.30;68.10
17831;DHT22;9040;51.332;12.406;2022-07-05T16:41:10;30.00;69.50
17831;DHT22;9040;51.332;12.406;2022-07-05T16:43:39;29.80;69.90
17831;DHT22;9040;51.332;12.406;2022-07-05T16:46:08;29.80;70.90
17831;DHT22;9040;51.332;12.406;2022-07-05T16:48:35;29.90;70.40
17831;DHT22;9040;51.332;12.406;2022-07-05T16:51:03;29.90;70.30
17831;DHT22;9040;51.332;12.406;2022-07-05T16:53:31;30.00;70.80
17831;DHT22;9040;51.332;12.406;2022-07-05T16:56:02;29.90;70.60
17831;DHT22;9040;51.332;12.406;2022-07-05T16:58:31;30.00;70.80
17831;DHT22;9040;51.332;12.406;2022-07-05T17:01:01;30.00;71.30
17831;DHT22;9040;51.332;12.406;2022-07-05T17:03:28;30.00;71.10
17831;DHT22;9040;51.332;12.406;2022-07-05T17:05:55;29.80;71.00
17831;DHT22;9040;51.332;12.406;2022-07-05T17:08:22;29.30;71.00
17831;DHT22;9040;51.332;12.406;2022-07-05T17:10:49;28.80;72.00
17831;DHT22;9040;51.332;12.406;2022-07-05T17:13:17;28.30;72.40
17831;DHT22;9040;51.332;12.406;2022-07-05T17:15:44;28.20;72.80
17831;DHT22;9040;51.332;12.406;2022-07-05T17:18:11;28.30;72.80
17831;DHT22;9040;51.332;12.406;2022-07-05T17:20:38;28.50;72.60
17831;DHT22;9040;51.332;12.406;2022-07-05T17:23:04;28.50;73.20
17831;DHT22;9040;51.332;12.406;2022-07-05T17:25:31;28.50;72.00
17831;DHT22;9040;51.332;12.406;2022-07-05T17:27:58;28.00;72.60
17831;DHT22;9040;51.332;12.406;2022-07-05T17:30:27;27.60;73.20
17831;DHT22;9040;51.332;12.406;2022-07-05T17:32:54;27.40;73.50
17831;DHT22;9040;51.332;12.406;2022-07-05T17:35:20;27.40;73.30
17831;DHT22;9040;51.332;12.406;2022-07-05T17:37:47;27.70;73.60
17831;DHT22;9040;51.332;12.406;2022-07-05T17:40:14;27.90;72.50
17831;DHT22;9040;51.332;12.406;2022-07-05T17:42:41;27.80;72.30
17831;DHT22;9040;51.332;12.406;2022-07-05T17:45:08;27.90;73.60
17831;DHT22;9040;51.332;12.406;2022-07-05T17:47:37;28.00;72.00
17831;DHT22;9040;51.332;12.406;2022-07-05T17:50:04;28.40;72.10
17831;DHT22;9040;51.332;12.406;2022-07-05T17:52:31;28.50;71.50
17831;DHT22;9040;51.332;12.406;2022-07-05T17:54:58;28.40;71.70
17831;DHT22;9040;51.332;12.406;2022-07-05T17:57:25;28.20;70.80
17831;DHT22;9040;51.332;12.406;2022-07-05T17:59:52;27.90;71.20
17831;DHT22;9040;51.332;12.406;2022-07-05T18:02:19;27.70;71.40
17831;DHT22;9040;51.332;12.406;2022-07-05T18:04:47;27.60;71.00
17831;DHT22;9040;51.332;12.406;2022-07-05T18:07:14;27.70;71.80
17831;DHT22;9040;51.332;12.406;2022-07-05T18:09:41;27.60;71.20
17831;DHT22;9040;51.332;12.406;2022-07-05T18:12:08;27.50;71.00
17831;DHT22;9040;51.332;12.406;2022-07-05T18:14:35;27.50;71.20
17831;DHT22;9040;51.332;12.406;2022-07-05T18:17:03;27.40;70.50
17831;DHT22;9040;51.332;12.406;2022-07-05T18:19:30;27.30;70.10
17831;DHT22;9040;51.332;12.406;2022-07-05T18:21:58;27.00;69.70
17831;DHT22;9040;51.332;12.406;2022-07-05T18:24:25;26.80;70.60
17831;DHT22;9040;51.332;12.406;2022-07-05T18:26:52;26.70;70.50
17831;DHT22;9040;51.332;12.406;2022-07-05T18:29:19;26.50;70.90
17831;DHT22;9040;51.332;12.406;2022-07-05T18:31:45;26.40;71.20
17831;DHT22;9040;51.332;12.406;2022-07-05T18:34:12;26.30;72.00
17831;DHT22;9040;51.332;12.406;2022-07-05T18:36:40;26.20;71.60
17831;DHT22;9040;51.332;12.406;2022-07-05T18:39:08;26.10;72.30
17831;DHT22;9040;51.332;12.406;2022-07-05T18:41:35;26.00;72.10
17831;DHT22;9040;51.332;12.406;2022-07-05T18:44:02;25.80;72.00
17831;DHT22;9040;51.332;12.406;2022-07-05T18:46:29;25.40;70.90
17831;DHT22;9040;51.332;12.406;2022-07-05T18:48:56;25.20;71.30
17831;DHT22;9040;51.332;12.406;2022-07-05T18:51:26;25.00;71.50
17831;DHT22;9040;51.332;12.406;2022-07-05T18:53:53;24.80;71.50
17831;DHT22;9040;51.332;12.406;2022-07-05T18:56:21;24.70;71.70
17831;DHT22;9040;51.332;12.406;2022-07-05T18:58:48;24.70;71.90
17831;DHT22;9040;51.332;12.406;2022-07-05T19:01:16;24.60;72.00
17831;DHT22;9040;51.332;12.406;2022-07-05T19:03:43;24.50;71.90